Walsh, Canada
Current Conditions -  °F | °C
As of 6:00 PM on Saturday 22 Nov 2014 (Local Time) from CYXH Reporting Station
Broken Clouds Broken Clouds  
Wind Chill: 28°   Ceiling: 8000
Heat Index: 37°   Visibility: 15mi
Dew Point: 32°   Wind: 17mph
Humidity: 81%   Direction: 300°WNW
Pressure: 29.36"   Gusts: 25mph
Location:  49.95°N, 110.03°W
Report Text: CYXH 230100Z 30015G22KT 15SM SCT025 BKN080 03/M00 A2936 RMK SF4AC3 PRESRR SLP957
Loading
Personal Weather Stations






























Interactive Weather Map New forecast layout! Learn more

10-Day Weather Forecast

Advertisements
Track Severe Weather on mobile